Chiricana — 3EKU3 — position and weather

sailwx.info

Track history (hours):
 
Tides and Currents Weather Stations Pressure Air Temp Water Temp Dewpoint Dewpoint Depression Visibility Wind Speed Wind Dir Waves Ship Positions

Chiricana

Last reported at 2016-Jun-27 08:15 UTC. Time now 2016-Jun-28 11:39 UTC.
Position S 31°06' E 035°02'.

Length 300 m; draft 11.4 m.

Type: Ship (hazmat cat A). MMSI: 372829000.

Date/timePositionNaut miles runAvg speedWind from/ knotsBaromVisibWave heightAir tempDewpointWater temp
2016-Jun-27 08:15S 31°06' E 035°02'3118.0
2016-Jun-27 06:33S 31°20' E 034°30'3617.4
2016-Jun-27 04:30S 31°36' E 033°53'7117.7
2016-Jun-27 00:31S 32°07' E 032°38'3517.7
2016-Jun-26 22:31S 32°23' E 032°00'1717.6
2016-Jun-26 21:32S 32°31' E 031°42'1718.0
2016-Jun-26 20:33S 32°39' E 031°24'1818.1
2016-Jun-26 19:33S 32°47' E 031°04'1717.4
2016-Jun-26 18:33S 32°55' E 030°46'1716.9
2016-Jun-26 17:32S 33°02' E 030°28'1717.1
2016-Jun-26 16:33S 33°10' E 030°10'59415.9
2016-Jun-25 03:06S 34°29' E 018°20'1417.2
2016-Jun-25 02:16S 34°24' E 018°04'  
Track history (hours):
 
Tides and Currents Weather Stations Pressure Air Temp Water Temp Dewpoint Dewpoint Depression Visibility Wind Speed Wind Dir Waves Ship Positions

Chiricana

Last reported at 2016-Jun-27 08:15 UTC. Time now 2016-Jun-28 11:39 UTC.
Position S 31°06' E 035°02'.

Length 300 m; draft 11.4 m.

Type: Ship (hazmat cat A). MMSI: 372829000.

Date/timePositionNaut miles runAvg speedWind from/ knotsBaromVisibWave heightAir tempDewpointWater temp
2016-Jun-27 08:15S 31°06' E 035°02'3118.0
2016-Jun-27 06:33S 31°20' E 034°30'3617.4
2016-Jun-27 04:30S 31°36' E 033°53'7117.7
2016-Jun-27 00:31S 32°07' E 032°38'3517.7
2016-Jun-26 22:31S 32°23' E 032°00'1717.6
2016-Jun-26 21:32S 32°31' E 031°42'1718.0
2016-Jun-26 20:33S 32°39' E 031°24'1818.1
2016-Jun-26 19:33S 32°47' E 031°04'1717.4
2016-Jun-26 18:33S 32°55' E 030°46'1716.9
2016-Jun-26 17:32S 33°02' E 030°28'1717.1
2016-Jun-26 16:33S 33°10' E 030°10'59415.9
2016-Jun-25 03:06S 34°29' E 018°20'1417.2
2016-Jun-25 02:16S 34°24' E 018°04'  

Dump ship's entire track history